sensor_id;sensor_type;location;lat;lon;timestamp;P1;durP1;ratioP1;P2;durP2;ratioP2
20138;SDS011;10230;51.502;10.800;2022-07-30T00:02:15;3.90;;;3.60;;
20138;SDS011;10230;51.502;10.800;2022-07-30T00:04:41;4.32;;;3.92;;
20138;SDS011;10230;51.502;10.800;2022-07-30T00:07:07;4.43;;;4.03;;
20138;SDS011;10230;51.502;10.800;2022-07-30T00:09:33;6.28;;;3.85;;
20138;SDS011;10230;51.502;10.800;2022-07-30T00:11:59;6.15;;;4.15;;
20138;SDS011;10230;51.502;10.800;2022-07-30T00:14:25;9.82;;;4.53;;
20138;SDS011;10230;51.502;10.800;2022-07-30T00:16:51;6.20;;;4.47;;
20138;SDS011;10230;51.502;10.800;2022-07-30T00:19:18;6.18;;;5.00;;
20138;SDS011;10230;51.502;10.800;2022-07-30T00:21:44;5.78;;;4.35;;
20138;SDS011;10230;51.502;10.800;2022-07-30T00:24:10;7.80;;;4.45;;
20138;SDS011;10230;51.502;10.800;2022-07-30T00:26:36;2.83;;;2.63;;
20138;SDS011;10230;51.502;10.800;2022-07-30T00:29:02;3.90;;;2.70;;
20138;SDS011;10230;51.502;10.800;2022-07-30T00:31:28;2.95;;;2.55;;
20138;SDS011;10230;51.502;10.800;2022-07-30T00:33:54;5.32;;;3.20;;
20138;SDS011;10230;51.502;10.800;2022-07-30T00:36:20;7.88;;;3.63;;
20138;SDS011;10230;51.502;10.800;2022-07-30T00:38:46;4.30;;;3.42;;
20138;SDS011;10230;51.502;10.800;2022-07-30T00:41:11;5.32;;;4.28;;
20138;SDS011;10230;51.502;10.800;2022-07-30T00:43:37;4.20;;;3.70;;
20138;SDS011;10230;51.502;10.800;2022-07-30T00:46:03;4.93;;;4.43;;
20138;SDS011;10230;51.502;10.800;2022-07-30T00:48:28;7.70;;;3.72;;
20138;SDS011;10230;51.502;10.800;2022-07-30T00:50:54;6.20;;;3.97;;
20138;SDS011;10230;51.502;10.800;2022-07-30T00:53:20;7.90;;;4.60;;
20138;SDS011;10230;51.502;10.800;2022-07-30T00:55:46;6.78;;;4.20;;
20138;SDS011;10230;51.502;10.800;2022-07-30T00:58:11;4.93;;;4.00;;
20138;SDS011;10230;51.502;10.800;2022-07-30T01:00:37;4.28;;;3.75;;
20138;SDS011;10230;51.502;10.800;2022-07-30T01:03:03;7.63;;;4.80;;
20138;SDS011;10230;51.502;10.800;2022-07-30T01:05:29;5.45;;;4.40;;
20138;SDS011;10230;51.502;10.800;2022-07-30T01:07:55;4.60;;;3.67;;
20138;SDS011;10230;51.502;10.800;2022-07-30T01:10:21;6.75;;;3.97;;
20138;SDS011;10230;51.502;10.800;2022-07-30T01:12:46;5.63;;;4.18;;
20138;SDS011;10230;51.502;10.800;2022-07-30T01:15:12;5.13;;;3.83;;
20138;SDS011;10230;51.502;10.800;2022-07-30T01:17:38;6.13;;;4.75;;
20138;SDS011;10230;51.502;10.800;2022-07-30T01:20:12;7.78;;;3.72;;
20138;SDS011;10230;51.502;10.800;2022-07-30T01:22:43;6.07;;;4.25;;
20138;SDS011;10230;51.502;10.800;2022-07-30T01:27:57;5.70;;;4.18;;
20138;SDS011;10230;51.502;10.800;2022-07-30T01:30:28;6.72;;;4.63;;
20138;SDS011;10230;51.502;10.800;2022-07-30T01:32:56;4.25;;;2.58;;
20138;SDS011;10230;51.502;10.800;2022-07-30T01:35:24;8.38;;;4.60;;
20138;SDS011;10230;51.502;10.800;2022-07-30T01:37:52;6.35;;;4.30;;
20138;SDS011;10230;51.502;10.800;2022-07-30T01:40:19;7.97;;;4.55;;
20138;SDS011;10230;51.502;10.800;2022-07-30T01:42:47;2.42;;;2.15;;
20138;SDS011;10230;51.502;10.800;2022-07-30T01:45:18;7.22;;;4.65;;
20138;SDS011;10230;51.502;10.800;2022-07-30T01:47:50;6.28;;;4.90;;
20138;SDS011;10230;51.502;10.800;2022-07-30T01:50:17;4.88;;;4.35;;
20138;SDS011;10230;51.502;10.800;2022-07-30T01:52:46;5.00;;;4.50;;
20138;SDS011;10230;51.502;10.800;2022-07-30T01:55:20;7.32;;;5.25;;
20138;SDS011;10230;51.502;10.800;2022-07-30T01:57:50;8.30;;;5.05;;
20138;SDS011;10230;51.502;10.800;2022-07-30T02:00:18;5.93;;;4.68;;
20138;SDS011;10230;51.502;10.800;2022-07-30T02:02:44;5.13;;;4.53;;
20138;SDS011;10230;51.502;10.800;2022-07-30T02:05:10;5.88;;;5.05;;
20138;SDS011;10230;51.502;10.800;2022-07-30T02:07:42;5.63;;;4.88;;
20138;SDS011;10230;51.502;10.800;2022-07-30T02:10:14;5.97;;;4.70;;
20138;SDS011;10230;51.502;10.800;2022-07-30T02:12:47;7.38;;;5.05;;
20138;SDS011;10230;51.502;10.800;2022-07-30T02:18:01;6.60;;;4.80;;
20138;SDS011;10230;51.502;10.800;2022-07-30T02:20:31;7.28;;;5.10;;
20138;SDS011;10230;51.502;10.800;2022-07-30T02:23:00;5.60;;;5.00;;
20138;SDS011;10230;51.502;10.800;2022-07-30T02:25:30;7.45;;;5.70;;
20138;SDS011;10230;51.502;10.800;2022-07-30T02:27:59;8.60;;;6.20;;
20138;SDS011;10230;51.502;10.800;2022-07-30T02:30:29;7.38;;;5.63;;
20138;SDS011;10230;51.502;10.800;2022-07-30T02:33:06;6.78;;;6.07;;
20138;SDS011;10230;51.502;10.800;2022-07-30T02:35:34;7.65;;;5.53;;
20138;SDS011;10230;51.502;10.800;2022-07-30T02:38:02;9.25;;;6.43;;
20138;SDS011;10230;51.502;10.800;2022-07-30T02:40:29;8.15;;;5.80;;
20138;SDS011;10230;51.502;10.800;2022-07-30T02:42:55;8.65;;;6.00;;
20138;SDS011;10230;51.502;10.800;2022-07-30T02:45:23;6.18;;;5.57;;
20138;SDS011;10230;51.502;10.800;2022-07-30T02:47:52;7.47;;;5.28;;
20138;SDS011;10230;51.502;10.800;2022-07-30T02:50:20;4.32;;;3.38;;
20138;SDS011;10230;51.502;10.800;2022-07-30T02:52:48;5.78;;;4.53;;
20138;SDS011;10230;51.502;10.800;2022-07-30T02:55:15;6.95;;;5.35;;
20138;SDS011;10230;51.502;10.800;2022-07-30T02:57:42;8.05;;;6.10;;
20138;SDS011;10230;51.502;10.800;2022-07-30T03:00:09;7.32;;;5.00;;
20138;SDS011;10230;51.502;10.800;2022-07-30T03:02:35;6.25;;;5.22;;
20138;SDS011;10230;51.502;10.800;2022-07-30T03:05:03;6.90;;;5.82;;
20138;SDS011;10230;51.502;10.800;2022-07-30T03:07:32;8.98;;;6.05;;
20138;SDS011;10230;51.502;10.800;2022-07-30T03:09:59;8.02;;;5.32;;
20138;SDS011;10230;51.502;10.800;2022-07-30T03:12:28;8.43;;;5.95;;
20138;SDS011;10230;51.502;10.800;2022-07-30T03:14:55;6.47;;;4.65;;
20138;SDS011;10230;51.502;10.800;2022-07-30T03:17:23;6.40;;;4.90;;
20138;SDS011;10230;51.502;10.800;2022-07-30T03:19:52;11.68;;;5.50;;
20138;SDS011;10230;51.502;10.800;2022-07-30T03:22:19;8.95;;;4.88;;
20138;SDS011;10230;51.502;10.800;2022-07-30T03:24:46;5.93;;;4.60;;
20138;SDS011;10230;51.502;10.800;2022-07-30T03:27:13;4.32;;;3.92;;
20138;SDS011;10230;51.502;10.800;2022-07-30T03:29:41;5.22;;;4.57;;
20138;SDS011;10230;51.502;10.800;2022-07-30T03:32:09;7.07;;;4.32;;
20138;SDS011;10230;51.502;10.800;2022-07-30T03:34:36;6.35;;;4.20;;
20138;SDS011;10230;51.502;10.800;2022-07-30T03:37:03;6.40;;;4.30;;
20138;SDS011;10230;51.502;10.800;2022-07-30T03:39:31;6.13;;;4.32;;
20138;SDS011;10230;51.502;10.800;2022-07-30T03:41:58;4.75;;;4.18;;
20138;SDS011;10230;51.502;10.800;2022-07-30T03:44:24;5.53;;;4.90;;
20138;SDS011;10230;51.502;10.800;2022-07-30T03:46:50;5.95;;;5.35;;
20138;SDS011;10230;51.502;10.800;2022-07-30T03:49:17;7.70;;;6.28;;
20138;SDS011;10230;51.502;10.800;2022-07-30T03:51:44;7.22;;;5.75;;
20138;SDS011;10230;51.502;10.800;2022-07-30T03:54:11;8.80;;;6.93;;
20138;SDS011;10230;51.502;10.800;2022-07-30T03:56:37;8.82;;;6.95;;
20138;SDS011;10230;51.502;10.800;2022-07-30T03:59:03;8.57;;;7.30;;
20138;SDS011;10230;51.502;10.800;2022-07-30T04:01:29;10.60;;;8.25;;
20138;SDS011;10230;51.502;10.800;2022-07-30T04:04:02;9.52;;;6.65;;
20138;SDS011;10230;51.502;10.800;2022-07-30T04:06:29;8.20;;;6.47;;
20138;SDS011;10230;51.502;10.800;2022-07-30T04:08:54;8.50;;;6.97;;
20138;SDS011;10230;51.502;10.800;2022-07-30T04:11:20;11.48;;;8.73;;
20138;SDS011;10230;51.502;10.800;2022-07-30T04:13:46;8.00;;;7.30;;
20138;SDS011;10230;51.502;10.800;2022-07-30T04:16:16;7.82;;;7.13;;
20138;SDS011;10230;51.502;10.800;2022-07-30T04:18:49;8.18;;;7.43;;
20138;SDS011;10230;51.502;10.800;2022-07-30T04:21:17;10.48;;;7.32;;
20138;SDS011;10230;51.502;10.800;2022-07-30T04:23:44;9.57;;;7.38;;
20138;SDS011;10230;51.502;10.800;2022-07-30T04:26:11;8.45;;;7.05;;
20138;SDS011;10230;51.502;10.800;2022-07-30T04:28:38;9.60;;;7.13;;
20138;SDS011;10230;51.502;10.800;2022-07-30T04:31:03;9.35;;;6.80;;
20138;SDS011;10230;51.502;10.800;2022-07-30T04:33:29;8.15;;;6.63;;
20138;SDS011;10230;51.502;10.800;2022-07-30T04:35:56;7.43;;;5.70;;
20138;SDS011;10230;51.502;10.800;2022-07-30T04:38:22;6.88;;;6.13;;
20138;SDS011;10230;51.502;10.800;2022-07-30T04:40:47;8.43;;;5.38;;
20138;SDS011;10230;51.502;10.800;2022-07-30T04:43:13;6.13;;;5.50;;
20138;SDS011;10230;51.502;10.800;2022-07-30T04:45:39;6.78;;;5.60;;
20138;SDS011;10230;51.502;10.800;2022-07-30T04:48:06;7.63;;;5.68;;
20138;SDS011;10230;51.502;10.800;2022-07-30T04:50:32;7.38;;;6.20;;
20138;SDS011;10230;51.502;10.800;2022-07-30T04:53:00;8.73;;;6.45;;
20138;SDS011;10230;51.502;10.800;2022-07-30T04:55:27;7.60;;;6.88;;
20138;SDS011;10230;51.502;10.800;2022-07-30T04:57:53;7.32;;;6.15;;
20138;SDS011;10230;51.502;10.800;2022-07-30T05:00:20;6.63;;;5.45;;
20138;SDS011;10230;51.502;10.800;2022-07-30T05:02:46;6.28;;;5.68;;
20138;SDS011;10230;51.502;10.800;2022-07-30T05:05:14;7.57;;;6.10;;
20138;SDS011;10230;51.502;10.800;2022-07-30T05:07:41;7.88;;;6.35;;
20138;SDS011;10230;51.502;10.800;2022-07-30T05:10:09;6.72;;;6.13;;
20138;SDS011;10230;51.502;10.800;2022-07-30T05:12:36;7.40;;;6.32;;
20138;SDS011;10230;51.502;10.800;2022-07-30T05:15:03;6.57;;;5.80;;
20138;SDS011;10230;51.502;10.800;2022-07-30T05:17:29;5.70;;;5.15;;
20138;SDS011;10230;51.502;10.800;2022-07-30T05:19:55;7.30;;;4.53;;
20138;SDS011;10230;51.502;10.800;2022-07-30T05:22:20;6.10;;;4.43;;
20138;SDS011;10230;51.502;10.800;2022-07-30T05:24:46;4.97;;;3.97;;
20138;SDS011;10230;51.502;10.800;2022-07-30T05:27:12;7.65;;;4.47;;
20138;SDS011;10230;51.502;10.800;2022-07-30T05:29:37;6.90;;;4.45;;
20138;SDS011;10230;51.502;10.800;2022-07-30T05:32:03;6.47;;;4.50;;
20138;SDS011;10230;51.502;10.800;2022-07-30T05:34:29;6.30;;;4.32;;
20138;SDS011;10230;51.502;10.800;2022-07-30T05:36:54;4.68;;;4.10;;
20138;SDS011;10230;51.502;10.800;2022-07-30T05:39:20;6.22;;;4.28;;
20138;SDS011;10230;51.502;10.800;2022-07-30T05:41:46;7.55;;;4.45;;
20138;SDS011;10230;51.502;10.800;2022-07-30T05:44:11;6.60;;;4.13;;
20138;SDS011;10230;51.502;10.800;2022-07-30T05:46:37;8.30;;;4.97;;
20138;SDS011;10230;51.502;10.800;2022-07-30T05:49:03;4.45;;;4.05;;
20138;SDS011;10230;51.502;10.800;2022-07-30T05:51:30;5.47;;;4.28;;
20138;SDS011;10230;51.502;10.800;2022-07-30T05:53:55;6.20;;;4.82;;
20138;SDS011;10230;51.502;10.800;2022-07-30T05:56:21;8.25;;;5.28;;
20138;SDS011;10230;51.502;10.800;2022-07-30T05:58:47;7.07;;;5.05;;
20138;SDS011;10230;51.502;10.800;2022-07-30T06:01:12;9.40;;;6.18;;
20138;SDS011;10230;51.502;10.800;2022-07-30T06:03:38;7.43;;;4.88;;
20138;SDS011;10230;51.502;10.800;2022-07-30T06:06:04;5.07;;;4.38;;
20138;SDS011;10230;51.502;10.800;2022-07-30T06:08:31;6.60;;;4.25;;
20138;SDS011;10230;51.502;10.800;2022-07-30T06:10:57;5.40;;;4.18;;
20138;SDS011;10230;51.502;10.800;2022-07-30T06:13:22;7.43;;;4.22;;
20138;SDS011;10230;51.502;10.800;2022-07-30T06:15:48;7.90;;;4.55;;
20138;SDS011;10230;51.502;10.800;2022-07-30T06:18:14;6.88;;;6.07;;
20138;SDS011;10230;51.502;10.800;2022-07-30T06:20:39;8.65;;;5.85;;
20138;SDS011;10230;51.502;10.800;2022-07-30T06:23:06;5.85;;;4.07;;
20138;SDS011;10230;51.502;10.800;2022-07-30T06:25:32;5.72;;;4.68;;
20138;SDS011;10230;51.502;10.800;2022-07-30T06:27:58;6.30;;;4.28;;
20138;SDS011;10230;51.502;10.800;2022-07-30T06:30:23;8.57;;;6.63;;
20138;SDS011;10230;51.502;10.800;2022-07-30T06:32:49;7.65;;;4.80;;
20138;SDS011;10230;51.502;10.800;2022-07-30T06:35:15;5.03;;;4.38;;
20138;SDS011;10230;51.502;10.800;2022-07-30T06:37:40;7.22;;;4.30;;
20138;SDS011;10230;51.502;10.800;2022-07-30T06:40:07;6.68;;;4.32;;
20138;SDS011;10230;51.502;10.800;2022-07-30T06:42:33;6.50;;;4.38;;
20138;SDS011;10230;51.502;10.800;2022-07-30T06:44:59;6.90;;;4.55;;
20138;SDS011;10230;51.502;10.800;2022-07-30T06:47:24;4.80;;;4.10;;
20138;SDS011;10230;51.502;10.800;2022-07-30T06:49:53;5.40;;;4.32;;
20138;SDS011;10230;51.502;10.800;2022-07-30T06:52:22;6.55;;;3.92;;
20138;SDS011;10230;51.502;10.800;2022-07-30T06:54:48;6.95;;;4.47;;
20138;SDS011;10230;51.502;10.800;2022-07-30T06:57:14;9.00;;;4.35;;
20138;SDS011;10230;51.502;10.800;2022-07-30T06:59:40;7.68;;;4.03;;
20138;SDS011;10230;51.502;10.800;2022-07-30T07:02:06;5.25;;;3.97;;
20138;SDS011;10230;51.502;10.800;2022-07-30T07:04:32;4.22;;;3.80;;
20138;SDS011;10230;51.502;10.800;2022-07-30T07:06:58;6.47;;;4.07;;
20138;SDS011;10230;51.502;10.800;2022-07-30T07:09:23;5.75;;;3.97;;
20138;SDS011;10230;51.502;10.800;2022-07-30T07:11:49;6.90;;;4.72;;
20138;SDS011;10230;51.502;10.800;2022-07-30T07:14:18;4.30;;;3.85;;
20138;SDS011;10230;51.502;10.800;2022-07-30T07:16:43;5.07;;;3.90;;
20138;SDS011;10230;51.502;10.800;2022-07-30T07:19:09;7.28;;;3.50;;
20138;SDS011;10230;51.502;10.800;2022-07-30T07:21:35;6.50;;;5.03;;
20138;SDS011;10230;51.502;10.800;2022-07-30T07:24:00;5.65;;;3.97;;
20138;SDS011;10230;51.502;10.800;2022-07-30T07:26:27;7.32;;;4.30;;
20138;SDS011;10230;51.502;10.800;2022-07-30T07:28:55;5.80;;;3.75;;
20138;SDS011;10230;51.502;10.800;2022-07-30T07:31:20;5.75;;;3.90;;
20138;SDS011;10230;51.502;10.800;2022-07-30T07:33:46;5.50;;;4.50;;
20138;SDS011;10230;51.502;10.800;2022-07-30T07:36:13;5.07;;;3.80;;
20138;SDS011;10230;51.502;10.800;2022-07-30T07:38:39;4.82;;;4.13;;
20138;SDS011;10230;51.502;10.800;2022-07-30T07:41:04;5.78;;;4.43;;
20138;SDS011;10230;51.502;10.800;2022-07-30T07:43:30;5.90;;;3.78;;
20138;SDS011;10230;51.502;10.800;2022-07-30T07:45:57;4.53;;;4.13;;
20138;SDS011;10230;51.502;10.800;2022-07-30T07:48:22;5.18;;;3.78;;
20138;SDS011;10230;51.502;10.800;2022-07-30T07:50:49;4.38;;;3.72;;
20138;SDS011;10230;51.502;10.800;2022-07-30T07:53:15;5.30;;;4.07;;
20138;SDS011;10230;51.502;10.800;2022-07-30T07:55:40;5.88;;;4.32;;
20138;SDS011;10230;51.502;10.800;2022-07-30T07:58:06;4.43;;;3.67;;
20138;SDS011;10230;51.502;10.800;2022-07-30T08:00:35;4.25;;;3.67;;
20138;SDS011;10230;51.502;10.800;2022-07-30T08:03:01;5.93;;;3.53;;
20138;SDS011;10230;51.502;10.800;2022-07-30T08:05:26;3.78;;;3.47;;
20138;SDS011;10230;51.502;10.800;2022-07-30T08:07:52;3.42;;;3.03;;
20138;SDS011;10230;51.502;10.800;2022-07-30T08:10:18;4.25;;;3.20;;
20138;SDS011;10230;51.502;10.800;2022-07-30T08:12:44;4.53;;;3.17;;
20138;SDS011;10230;51.502;10.800;2022-07-30T08:15:10;4.18;;;2.92;;
20138;SDS011;10230;51.502;10.800;2022-07-30T08:17:43;3.42;;;2.47;;
20138;SDS011;10230;51.502;10.800;2022-07-30T08:20:09;8.32;;;3.30;;
20138;SDS011;10230;51.502;10.800;2022-07-30T08:22:36;3.97;;;2.85;;
20138;SDS011;10230;51.502;10.800;2022-07-30T08:25:02;4.80;;;3.03;;
20138;SDS011;10230;51.502;10.800;2022-07-30T08:27:29;3.67;;;3.00;;
20138;SDS011;10230;51.502;10.800;2022-07-30T08:29:55;3.03;;;2.72;;
20138;SDS011;10230;51.502;10.800;2022-07-30T08:32:21;4.57;;;2.60;;
20138;SDS011;10230;51.502;10.800;2022-07-30T08:34:47;5.03;;;3.00;;
20138;SDS011;10230;51.502;10.800;2022-07-30T08:37:13;3.65;;;3.00;;
20138;SDS011;10230;51.502;10.800;2022-07-30T08:39:40;3.17;;;2.63;;
20138;SDS011;10230;51.502;10.800;2022-07-30T08:42:06;4.83;;;3.20;;
20138;SDS011;10230;51.502;10.800;2022-07-30T08:44:32;3.05;;;2.70;;
20138;SDS011;10230;51.502;10.800;2022-07-30T08:46:58;4.38;;;3.08;;
20138;SDS011;10230;51.502;10.800;2022-07-30T08:49:27;3.55;;;2.85;;
20138;SDS011;10230;51.502;10.800;2022-07-30T08:51:53;3.67;;;3.00;;
20138;SDS011;10230;51.502;10.800;2022-07-30T08:54:19;4.95;;;3.00;;
20138;SDS011;10230;51.502;10.800;2022-07-30T08:56:45;3.40;;;3.00;;
20138;SDS011;10230;51.502;10.800;2022-07-30T08:59:17;4.30;;;2.95;;
20138;SDS011;10230;51.502;10.800;2022-07-30T09:01:43;4.63;;;3.08;;
20138;SDS011;10230;51.502;10.800;2022-07-30T09:04:09;3.78;;;3.33;;
20138;SDS011;10230;51.502;10.800;2022-07-30T09:06:35;3.40;;;3.10;;
20138;SDS011;10230;51.502;10.800;2022-07-30T09:09:02;4.60;;;3.22;;
20138;SDS011;10230;51.502;10.800;2022-07-30T09:11:28;5.85;;;3.13;;
20138;SDS011;10230;51.502;10.800;2022-07-30T09:13:54;3.30;;;3.00;;
20138;SDS011;10230;51.502;10.800;2022-07-30T09:16:32;4.47;;;3.30;;
20138;SDS011;10230;51.502;10.800;2022-07-30T09:18:58;4.43;;;3.13;;
20138;SDS011;10230;51.502;10.800;2022-07-30T09:21:35;4.53;;;3.00;;
20138;SDS011;10230;51.502;10.800;2022-07-30T09:24:09;4.20;;;3.03;;
20138;SDS011;10230;51.502;10.800;2022-07-30T09:26:55;4.65;;;3.05;;
20138;SDS011;10230;51.502;10.800;2022-07-30T09:29:22;4.05;;;3.30;;
20138;SDS011;10230;51.502;10.800;2022-07-30T09:31:52;3.95;;;3.53;;
20138;SDS011;10230;51.502;10.800;2022-07-30T09:34:28;4.30;;;3.58;;
20138;SDS011;10230;51.502;10.800;2022-07-30T09:36:55;3.25;;;2.50;;
20138;SDS011;10230;51.502;10.800;2022-07-30T09:39:29;3.00;;;2.70;;
20138;SDS011;10230;51.502;10.800;2022-07-30T09:41:55;3.33;;;2.90;;
20138;SDS011;10230;51.502;10.800;2022-07-30T09:44:22;4.25;;;3.20;;
20138;SDS011;10230;51.502;10.800;2022-07-30T09:46:49;3.40;;;3.10;;
20138;SDS011;10230;51.502;10.800;2022-07-30T09:49:16;3.10;;;2.50;;
20138;SDS011;10230;51.502;10.800;2022-07-30T09:51:42;4.60;;;3.42;;
20138;SDS011;10230;51.502;10.800;2022-07-30T09:54:09;4.03;;;2.72;;
20138;SDS011;10230;51.502;10.800;2022-07-30T09:56:35;3.10;;;2.90;;
20138;SDS011;10230;51.502;10.800;2022-07-30T09:59:01;4.95;;;3.97;;
20138;SDS011;10230;51.502;10.800;2022-07-30T10:01:50;4.97;;;4.53;;
20138;SDS011;10230;51.502;10.800;2022-07-30T10:04:26;4.82;;;3.50;;
20138;SDS011;10230;51.502;10.800;2022-07-30T10:06:52;2.22;;;2.00;;
20138;SDS011;10230;51.502;10.800;2022-07-30T10:11:52;4.82;;;2.40;;
20138;SDS011;10230;51.502;10.800;2022-07-30T10:14:19;2.78;;;2.30;;
20138;SDS011;10230;51.502;10.800;2022-07-30T10:16:48;2.17;;;1.90;;
20138;SDS011;10230;51.502;10.800;2022-07-30T10:19:14;2.53;;;2.03;;
20138;SDS011;10230;51.502;10.800;2022-07-30T10:21:42;2.67;;;2.40;;
20138;SDS011;10230;51.502;10.800;2022-07-30T10:24:09;3.38;;;1.90;;
20138;SDS011;10230;51.502;10.800;2022-07-30T10:26:35;2.67;;;1.80;;
20138;SDS011;10230;51.502;10.800;2022-07-30T10:29:02;2.97;;;1.75;;
20138;SDS011;10230;51.502;10.800;2022-07-30T10:31:29;2.22;;;2.03;;
20138;SDS011;10230;51.502;10.800;2022-07-30T10:33:55;3.42;;;2.17;;
20138;SDS011;10230;51.502;10.800;2022-07-30T10:36:22;2.17;;;1.98;;
20138;SDS011;10230;51.502;10.800;2022-07-30T10:38:49;3.17;;;2.17;;
20138;SDS011;10230;51.502;10.800;2022-07-30T10:43:54;2.25;;;2.05;;
20138;SDS011;10230;51.502;10.800;2022-07-30T10:49:17;2.25;;;1.95;;
20138;SDS011;10230;51.502;10.800;2022-07-30T10:51:51;2.17;;;1.98;;
20138;SDS011;10230;51.502;10.800;2022-07-30T11:06:41;2.45;;;1.75;;
20138;SDS011;10230;51.502;10.800;2022-07-30T11:19:03;2.50;;;2.30;;
20138;SDS011;10230;51.502;10.800;2022-07-30T11:21:30;2.83;;;2.35;;
20138;SDS011;10230;51.502;10.800;2022-07-30T11:23:57;3.13;;;2.58;;
20138;SDS011;10230;51.502;10.800;2022-07-30T11:29:05;2.17;;;1.95;;
20138;SDS011;10230;51.502;10.800;2022-07-30T11:31:35;6.57;;;2.85;;
20138;SDS011;10230;51.502;10.800;2022-07-30T11:42:26;3.03;;;2.50;;
20138;SDS011;10230;51.502;10.800;2022-07-30T11:44:53;4.38;;;2.45;;
20138;SDS011;10230;51.502;10.800;2022-07-30T11:47:38;2.80;;;2.50;;
20138;SDS011;10230;51.502;10.800;2022-07-30T11:50:04;2.20;;;2.00;;
20138;SDS011;10230;51.502;10.800;2022-07-30T11:52:31;3.05;;;2.13;;
20138;SDS011;10230;51.502;10.800;2022-07-30T11:54:57;8.23;;;2.45;;
20138;SDS011;10230;51.502;10.800;2022-07-30T11:57:39;2.65;;;2.00;;
20138;SDS011;10230;51.502;10.800;2022-07-30T12:00:05;4.68;;;2.13;;
20138;SDS011;10230;51.502;10.800;2022-07-30T12:02:32;3.92;;;2.05;;
20138;SDS011;10230;51.502;10.800;2022-07-30T12:04:58;3.47;;;2.60;;
20138;SDS011;10230;51.502;10.800;2022-07-30T12:07:24;2.17;;;1.98;;
20138;SDS011;10230;51.502;10.800;2022-07-30T12:09:49;2.20;;;1.88;;
20138;SDS011;10230;51.502;10.800;2022-07-30T12:12:22;2.55;;;2.05;;
20138;SDS011;10230;51.502;10.800;2022-07-30T12:29:29;2.90;;;2.03;;
20138;SDS011;10230;51.502;10.800;2022-07-30T12:31:57;4.30;;;2.03;;
20138;SDS011;10230;51.502;10.800;2022-07-30T12:34:23;3.35;;;2.40;;
20138;SDS011;10230;51.502;10.800;2022-07-30T12:36:50;3.47;;;3.10;;
20138;SDS011;10230;51.502;10.800;2022-07-30T12:39:19;2.20;;;2.00;;
20138;SDS011;10230;51.502;10.800;2022-07-30T12:41:50;4.10;;;2.30;;
20138;SDS011;10230;51.502;10.800;2022-07-30T12:47:21;2.63;;;2.05;;
20138;SDS011;10230;51.502;10.800;2022-07-30T12:49:50;2.27;;;1.90;;
20138;SDS011;10230;51.502;10.800;2022-07-30T13:00:18;2.17;;;1.98;;
20138;SDS011;10230;51.502;10.800;2022-07-30T13:02:44;2.83;;;2.58;;
20138;SDS011;10230;51.502;10.800;2022-07-30T13:05:09;2.47;;;2.27;;
20138;SDS011;10230;51.502;10.800;2022-07-30T13:07:50;12.10;;;2.90;;
20138;SDS011;10230;51.502;10.800;2022-07-30T13:10:23;3.25;;;2.38;;
20138;SDS011;10230;51.502;10.800;2022-07-30T13:12:50;1.88;;;1.75;;
20138;SDS011;10230;51.502;10.800;2022-07-30T13:15:20;2.85;;;1.80;;
20138;SDS011;10230;51.502;10.800;2022-07-30T13:17:48;2.00;;;1.80;;
20138;SDS011;10230;51.502;10.800;2022-07-30T13:20:14;3.50;;;2.10;;
20138;SDS011;10230;51.502;10.800;2022-07-30T13:22:41;2.50;;;1.45;;
20138;SDS011;10230;51.502;10.800;2022-07-30T13:25:07;1.90;;;1.30;;
20138;SDS011;10230;51.502;10.800;2022-07-30T13:27:34;2.90;;;1.60;;
20138;SDS011;10230;51.502;10.800;2022-07-30T13:30:00;1.83;;;1.63;;
20138;SDS011;10230;51.502;10.800;2022-07-30T13:32:26;1.92;;;1.60;;
20138;SDS011;10230;51.502;10.800;2022-07-30T13:34:52;2.03;;;1.45;;
20138;SDS011;10230;51.502;10.800;2022-07-30T13:37:18;1.63;;;1.37;;
20138;SDS011;10230;51.502;10.800;2022-07-30T13:39:44;2.28;;;1.55;;
20138;SDS011;10230;51.502;10.800;2022-07-30T13:42:10;1.77;;;1.67;;
20138;SDS011;10230;51.502;10.800;2022-07-30T13:44:36;3.33;;;2.42;;
20138;SDS011;10230;51.502;10.800;2022-07-30T13:47:02;2.67;;;2.20;;
20138;SDS011;10230;51.502;10.800;2022-07-30T13:49:31;2.83;;;1.98;;
20138;SDS011;10230;51.502;10.800;2022-07-30T13:51:59;3.00;;;2.08;;
20138;SDS011;10230;51.502;10.800;2022-07-30T13:54:25;2.05;;;1.80;;
20138;SDS011;10230;51.502;10.800;2022-07-30T13:56:53;1.60;;;1.50;;
20138;SDS011;10230;51.502;10.800;2022-07-30T13:59:19;5.28;;;1.88;;
20138;SDS011;10230;51.502;10.800;2022-07-30T14:01:45;3.78;;;1.83;;
20138;SDS011;10230;51.502;10.800;2022-07-30T14:04:11;2.60;;;1.90;;
20138;SDS011;10230;51.502;10.800;2022-07-30T14:06:37;1.83;;;1.70;;
20138;SDS011;10230;51.502;10.800;2022-07-30T14:09:03;2.00;;;1.75;;
20138;SDS011;10230;51.502;10.800;2022-07-30T14:11:30;2.13;;;1.67;;
20138;SDS011;10230;51.502;10.800;2022-07-30T14:13:56;2.03;;;1.83;;
20138;SDS011;10230;51.502;10.800;2022-07-30T14:16:22;2.30;;;1.80;;
20138;SDS011;10230;51.502;10.800;2022-07-30T14:18:48;2.38;;;1.55;;
20138;SDS011;10230;51.502;10.800;2022-07-30T14:21:14;2.38;;;1.95;;
20138;SDS011;10230;51.502;10.800;2022-07-30T14:23:40;2.13;;;1.80;;
20138;SDS011;10230;51.502;10.800;2022-07-30T14:26:06;1.70;;;1.60;;
20138;SDS011;10230;51.502;10.800;2022-07-30T14:28:33;3.00;;;1.67;;
20138;SDS011;10230;51.502;10.800;2022-07-30T14:30:59;1.70;;;1.60;;
20138;SDS011;10230;51.502;10.800;2022-07-30T14:33:25;6.95;;;2.20;;
20138;SDS011;10230;51.502;10.800;2022-07-30T14:35:51;1.70;;;1.60;;
20138;SDS011;10230;51.502;10.800;2022-07-30T14:38:17;2.10;;;1.90;;
20138;SDS011;10230;51.502;10.800;2022-07-30T14:40:43;2.92;;;1.83;;
20138;SDS011;10230;51.502;10.800;2022-07-30T14:43:10;3.28;;;2.25;;
20138;SDS011;10230;51.502;10.800;2022-07-30T14:45:38;2.15;;;1.95;;
20138;SDS011;10230;51.502;10.800;2022-07-30T14:48:04;5.15;;;2.17;;
20138;SDS011;10230;51.502;10.800;2022-07-30T14:50:30;4.45;;;2.30;;
20138;SDS011;10230;51.502;10.800;2022-07-30T14:52:56;2.55;;;1.80;;
20138;SDS011;10230;51.502;10.800;2022-07-30T14:55:23;4.13;;;3.70;;
20138;SDS011;10230;51.502;10.800;2022-07-30T14:57:49;2.78;;;2.58;;
20138;SDS011;10230;51.502;10.800;2022-07-30T15:00:15;2.10;;;2.00;;
20138;SDS011;10230;51.502;10.800;2022-07-30T15:02:41;2.90;;;2.58;;
20138;SDS011;10230;51.502;10.800;2022-07-30T15:05:07;2.80;;;2.60;;
20138;SDS011;10230;51.502;10.800;2022-07-30T15:07:33;3.50;;;3.20;;
20138;SDS011;10230;51.502;10.800;2022-07-30T15:09:59;1.90;;;1.70;;
20138;SDS011;10230;51.502;10.800;2022-07-30T15:12:25;2.03;;;1.92;;
20138;SDS011;10230;51.502;10.800;2022-07-30T15:14:51;1.95;;;1.85;;
20138;SDS011;10230;51.502;10.800;2022-07-30T15:17:17;2.35;;;1.95;;
20138;SDS011;10230;51.502;10.800;2022-07-30T15:19:43;2.08;;;1.73;;
20138;SDS011;10230;51.502;10.800;2022-07-30T15:22:09;3.25;;;2.90;;
20138;SDS011;10230;51.502;10.800;2022-07-30T15:24:35;3.30;;;2.70;;
20138;SDS011;10230;51.502;10.800;2022-07-30T15:27:01;4.13;;;3.22;;
20138;SDS011;10230;51.502;10.800;2022-07-30T15:29:27;2.55;;;2.35;;
20138;SDS011;10230;51.502;10.800;2022-07-30T15:31:55;3.80;;;2.85;;
20138;SDS011;10230;51.502;10.800;2022-07-30T15:34:21;4.82;;;3.72;;
20138;SDS011;10230;51.502;10.800;2022-07-30T15:36:47;4.90;;;4.50;;
20138;SDS011;10230;51.502;10.800;2022-07-30T15:39:13;3.38;;;3.03;;
20138;SDS011;10230;51.502;10.800;2022-07-30T15:41:39;3.83;;;2.15;;
20138;SDS011;10230;51.502;10.800;2022-07-30T15:44:05;2.35;;;2.15;;
20138;SDS011;10230;51.502;10.800;2022-07-30T15:46:31;3.53;;;2.42;;